sensor_id;sensor_type;location;lat;lon;timestamp;P1;durP1;ratioP1;P2;durP2;ratioP2
67861;SDS011;54665;51.462;6.698;2023-09-18T00:00:58;19.20;;;8.40;;
67861;SDS011;54665;51.462;6.698;2023-09-18T00:02:58;17.17;;;8.63;;
67861;SDS011;54665;51.462;6.698;2023-09-18T00:04:58;18.07;;;9.00;;
67861;SDS011;54665;51.462;6.698;2023-09-18T00:06:59;16.10;;;8.60;;
67861;SDS011;54665;51.462;6.698;2023-09-18T00:08:59;19.57;;;9.13;;
67861;SDS011;54665;51.462;6.698;2023-09-18T00:10:59;16.00;;;8.97;;
67861;SDS011;54665;51.462;6.698;2023-09-18T00:13:00;18.50;;;8.90;;
67861;SDS011;54665;51.462;6.698;2023-09-18T00:15:00;20.13;;;9.17;;
67861;SDS011;54665;51.462;6.698;2023-09-18T00:17:00;18.73;;;9.20;;
67861;SDS011;54665;51.462;6.698;2023-09-18T00:19:01;18.80;;;8.73;;
67861;SDS011;54665;51.462;6.698;2023-09-18T00:21:01;18.97;;;9.40;;
67861;SDS011;54665;51.462;6.698;2023-09-18T00:23:01;19.70;;;9.43;;
67861;SDS011;54665;51.462;6.698;2023-09-18T00:25:02;23.50;;;9.70;;
67861;SDS011;54665;51.462;6.698;2023-09-18T00:27:02;20.37;;;9.27;;
67861;SDS011;54665;51.462;6.698;2023-09-18T00:29:03;18.05;;;8.63;;
67861;SDS011;54665;51.462;6.698;2023-09-18T00:31:03;21.23;;;10.07;;
67861;SDS011;54665;51.462;6.698;2023-09-18T00:33:04;19.93;;;9.30;;
67861;SDS011;54665;51.462;6.698;2023-09-18T00:35:04;18.93;;;8.93;;
67861;SDS011;54665;51.462;6.698;2023-09-18T00:37:05;23.20;;;9.45;;
67861;SDS011;54665;51.462;6.698;2023-09-18T00:39:05;21.53;;;8.93;;
67861;SDS011;54665;51.462;6.698;2023-09-18T00:41:05;21.63;;;9.57;;
67861;SDS011;54665;51.462;6.698;2023-09-18T00:43:05;21.23;;;9.50;;
67861;SDS011;54665;51.462;6.698;2023-09-18T00:45:06;22.23;;;9.50;;
67861;SDS011;54665;51.462;6.698;2023-09-18T00:47:07;19.30;;;9.20;;
67861;SDS011;54665;51.462;6.698;2023-09-18T00:49:08;17.42;;;8.45;;
67861;SDS011;54665;51.462;6.698;2023-09-18T00:51:09;27.97;;;8.97;;
67861;SDS011;54665;51.462;6.698;2023-09-18T00:53:09;19.47;;;8.83;;
67861;SDS011;54665;51.462;6.698;2023-09-18T00:55:12;22.80;;;9.20;;
67861;SDS011;54665;51.462;6.698;2023-09-18T00:57:13;19.33;;;9.37;;
67861;SDS011;54665;51.462;6.698;2023-09-18T00:59:14;22.05;;;9.68;;
67861;SDS011;54665;51.462;6.698;2023-09-18T01:01:15;18.83;;;9.43;;
67861;SDS011;54665;51.462;6.698;2023-09-18T01:03:19;21.98;;;9.77;;
67861;SDS011;54665;51.462;6.698;2023-09-18T01:05:21;20.08;;;9.52;;
67861;SDS011;54665;51.462;6.698;2023-09-18T01:07:21;20.43;;;8.97;;
67861;SDS011;54665;51.462;6.698;2023-09-18T01:09:21;20.10;;;9.17;;
67861;SDS011;54665;51.462;6.698;2023-09-18T01:11:45;21.63;;;9.63;;
67861;SDS011;54665;51.462;6.698;2023-09-18T01:13:58;22.20;;;9.45;;
67861;SDS011;54665;51.462;6.698;2023-09-18T01:16:34;22.80;;;9.50;;
67861;SDS011;54665;51.462;6.698;2023-09-18T01:18:48;19.67;;;9.75;;
67861;SDS011;54665;51.462;6.698;2023-09-18T01:20:51;20.35;;;9.75;;
67861;SDS011;54665;51.462;6.698;2023-09-18T01:22:51;20.13;;;9.17;;
67861;SDS011;54665;51.462;6.698;2023-09-18T01:24:52;22.90;;;9.90;;
67861;SDS011;54665;51.462;6.698;2023-09-18T01:26:52;19.87;;;9.53;;
67861;SDS011;54665;51.462;6.698;2023-09-18T01:28:52;18.20;;;9.37;;
67861;SDS011;54665;51.462;6.698;2023-09-18T01:30:52;17.00;;;9.37;;
67861;SDS011;54665;51.462;6.698;2023-09-18T01:32:53;20.10;;;10.13;;
67861;SDS011;54665;51.462;6.698;2023-09-18T01:34:56;21.58;;;9.88;;
67861;SDS011;54665;51.462;6.698;2023-09-18T01:36:59;20.63;;;9.27;;
67861;SDS011;54665;51.462;6.698;2023-09-18T01:39:00;21.65;;;9.75;;
67861;SDS011;54665;51.462;6.698;2023-09-18T01:41:01;17.30;;;9.53;;
67861;SDS011;54665;51.462;6.698;2023-09-18T01:43:01;19.52;;;9.27;;
67861;SDS011;54665;51.462;6.698;2023-09-18T01:45:02;18.83;;;9.00;;
67861;SDS011;54665;51.462;6.698;2023-09-18T01:47:03;20.88;;;9.50;;
67861;SDS011;54665;51.462;6.698;2023-09-18T01:49:05;19.35;;;9.13;;
67861;SDS011;54665;51.462;6.698;2023-09-18T01:51:06;19.83;;;8.93;;
67861;SDS011;54665;51.462;6.698;2023-09-18T01:53:06;19.47;;;9.27;;
67861;SDS011;54665;51.462;6.698;2023-09-18T01:55:06;17.80;;;8.97;;
67861;SDS011;54665;51.462;6.698;2023-09-18T01:57:07;23.60;;;9.70;;
67861;SDS011;54665;51.462;6.698;2023-09-18T01:59:08;21.33;;;9.20;;
67861;SDS011;54665;51.462;6.698;2023-09-18T02:01:08;19.17;;;8.80;;
67861;SDS011;54665;51.462;6.698;2023-09-18T02:03:09;17.85;;;8.85;;
67861;SDS011;54665;51.462;6.698;2023-09-18T02:05:09;18.67;;;8.70;;
67861;SDS011;54665;51.462;6.698;2023-09-18T02:07:09;18.87;;;9.07;;
67861;SDS011;54665;51.462;6.698;2023-09-18T02:09:10;19.03;;;9.00;;
67861;SDS011;54665;51.462;6.698;2023-09-18T02:11:10;20.97;;;9.60;;
67861;SDS011;54665;51.462;6.698;2023-09-18T02:13:10;21.93;;;9.33;;
67861;SDS011;54665;51.462;6.698;2023-09-18T02:15:11;17.83;;;9.35;;
67861;SDS011;54665;51.462;6.698;2023-09-18T02:17:11;20.87;;;9.30;;
67861;SDS011;54665;51.462;6.698;2023-09-18T02:19:12;16.87;;;8.87;;
67861;SDS011;54665;51.462;6.698;2023-09-18T02:21:19;19.80;;;9.13;;
67861;SDS011;54665;51.462;6.698;2023-09-18T02:23:20;17.57;;;9.47;;
67861;SDS011;54665;51.462;6.698;2023-09-18T02:25:21;20.30;;;9.35;;
67861;SDS011;54665;51.462;6.698;2023-09-18T02:27:21;18.30;;;8.83;;
67861;SDS011;54665;51.462;6.698;2023-09-18T02:29:21;17.37;;;8.53;;
67861;SDS011;54665;51.462;6.698;2023-09-18T02:31:21;19.57;;;9.17;;
67861;SDS011;54665;51.462;6.698;2023-09-18T02:33:22;18.40;;;8.83;;
67861;SDS011;54665;51.462;6.698;2023-09-18T02:35:22;23.93;;;9.30;;
67861;SDS011;54665;51.462;6.698;2023-09-18T02:37:22;17.00;;;8.73;;
67861;SDS011;54665;51.462;6.698;2023-09-18T02:39:23;22.03;;;8.87;;
67861;SDS011;54665;51.462;6.698;2023-09-18T02:41:24;17.95;;;8.43;;
67861;SDS011;54665;51.462;6.698;2023-09-18T02:43:25;17.30;;;8.40;;
67861;SDS011;54665;51.462;6.698;2023-09-18T02:45:25;19.07;;;8.40;;
67861;SDS011;54665;51.462;6.698;2023-09-18T02:47:26;17.23;;;8.30;;
67861;SDS011;54665;51.462;6.698;2023-09-18T02:49:26;18.50;;;7.77;;
67861;SDS011;54665;51.462;6.698;2023-09-18T02:51:27;16.85;;;8.05;;
67861;SDS011;54665;51.462;6.698;2023-09-18T02:53:28;20.87;;;8.30;;
67861;SDS011;54665;51.462;6.698;2023-09-18T02:55:30;16.33;;;7.90;;
67861;SDS011;54665;51.462;6.698;2023-09-18T02:57:31;13.13;;;7.60;;
67861;SDS011;54665;51.462;6.698;2023-09-18T02:59:31;16.35;;;8.00;;
67861;SDS011;54665;51.462;6.698;2023-09-18T03:01:31;18.00;;;8.37;;
67861;SDS011;54665;51.462;6.698;2023-09-18T03:03:32;16.53;;;7.87;;
67861;SDS011;54665;51.462;6.698;2023-09-18T03:05:33;16.85;;;8.25;;
67861;SDS011;54665;51.462;6.698;2023-09-18T03:07:34;15.73;;;8.10;;
67861;SDS011;54665;51.462;6.698;2023-09-18T03:09:34;18.47;;;8.30;;
67861;SDS011;54665;51.462;6.698;2023-09-18T03:11:35;14.95;;;7.65;;
67861;SDS011;54665;51.462;6.698;2023-09-18T03:13:35;16.47;;;7.80;;
67861;SDS011;54665;51.462;6.698;2023-09-18T03:15:36;17.40;;;7.90;;
67861;SDS011;54665;51.462;6.698;2023-09-18T03:17:36;14.75;;;7.40;;
67861;SDS011;54665;51.462;6.698;2023-09-18T03:19:37;19.50;;;7.93;;
67861;SDS011;54665;51.462;6.698;2023-09-18T03:21:37;15.90;;;6.70;;
67861;SDS011;54665;51.462;6.698;2023-09-18T03:23:37;15.40;;;6.57;;
67861;SDS011;54665;51.462;6.698;2023-09-18T03:25:38;14.33;;;6.67;;
67861;SDS011;54665;51.462;6.698;2023-09-18T03:27:38;12.70;;;6.10;;
67861;SDS011;54665;51.462;6.698;2023-09-18T03:29:40;11.17;;;5.53;;
67861;SDS011;54665;51.462;6.698;2023-09-18T03:31:41;13.75;;;5.60;;
67861;SDS011;54665;51.462;6.698;2023-09-18T03:33:41;13.57;;;5.23;;
67861;SDS011;54665;51.462;6.698;2023-09-18T03:35:45;12.53;;;5.50;;
67861;SDS011;54665;51.462;6.698;2023-09-18T03:37:47;11.60;;;5.40;;
67861;SDS011;54665;51.462;6.698;2023-09-18T03:39:49;12.27;;;5.55;;
67861;SDS011;54665;51.462;6.698;2023-09-18T03:41:50;10.13;;;5.27;;
67861;SDS011;54665;51.462;6.698;2023-09-18T03:43:50;10.68;;;5.10;;
67861;SDS011;54665;51.462;6.698;2023-09-18T03:45:51;11.23;;;5.53;;
67861;SDS011;54665;51.462;6.698;2023-09-18T03:47:52;10.50;;;4.68;;
67861;SDS011;54665;51.462;6.698;2023-09-18T03:49:53;11.27;;;4.60;;
67861;SDS011;54665;51.462;6.698;2023-09-18T03:51:53;10.97;;;4.97;;
67861;SDS011;54665;51.462;6.698;2023-09-18T03:53:53;8.80;;;4.60;;
67861;SDS011;54665;51.462;6.698;2023-09-18T03:55:53;10.83;;;5.07;;
67861;SDS011;54665;51.462;6.698;2023-09-18T03:57:54;12.10;;;5.63;;
67861;SDS011;54665;51.462;6.698;2023-09-18T03:59:54;15.10;;;6.03;;
67861;SDS011;54665;51.462;6.698;2023-09-18T04:01:54;14.43;;;6.43;;
67861;SDS011;54665;51.462;6.698;2023-09-18T04:03:55;15.03;;;6.47;;
67861;SDS011;54665;51.462;6.698;2023-09-18T04:05:55;18.17;;;7.10;;
67861;SDS011;54665;51.462;6.698;2023-09-18T04:07:55;16.23;;;6.40;;
67861;SDS011;54665;51.462;6.698;2023-09-18T04:09:56;15.60;;;7.23;;
67861;SDS011;54665;51.462;6.698;2023-09-18T04:11:56;14.67;;;7.07;;
67861;SDS011;54665;51.462;6.698;2023-09-18T04:13:56;14.03;;;6.90;;
67861;SDS011;54665;51.462;6.698;2023-09-18T04:15:56;13.67;;;6.40;;
67861;SDS011;54665;51.462;6.698;2023-09-18T04:17:57;12.10;;;6.07;;
67861;SDS011;54665;51.462;6.698;2023-09-18T04:19:58;11.83;;;5.60;;
67861;SDS011;54665;51.462;6.698;2023-09-18T04:21:58;11.60;;;5.70;;
67861;SDS011;54665;51.462;6.698;2023-09-18T04:23:58;11.83;;;5.10;;
67861;SDS011;54665;51.462;6.698;2023-09-18T04:25:59;13.20;;;5.45;;
67861;SDS011;54665;51.462;6.698;2023-09-18T04:28:00;13.52;;;5.18;;
67861;SDS011;54665;51.462;6.698;2023-09-18T04:30:01;10.33;;;5.33;;
67861;SDS011;54665;51.462;6.698;2023-09-18T04:32:02;10.82;;;5.07;;
67861;SDS011;54665;51.462;6.698;2023-09-18T04:34:03;12.52;;;5.20;;
67861;SDS011;54665;51.462;6.698;2023-09-18T04:36:03;12.43;;;4.97;;
67861;SDS011;54665;51.462;6.698;2023-09-18T04:38:05;16.13;;;5.67;;
67861;SDS011;54665;51.462;6.698;2023-09-18T04:40:07;13.18;;;5.28;;
67861;SDS011;54665;51.462;6.698;2023-09-18T04:42:08;13.32;;;5.70;;
67861;SDS011;54665;51.462;6.698;2023-09-18T04:44:08;13.17;;;6.00;;
67861;SDS011;54665;51.462;6.698;2023-09-18T04:46:09;14.05;;;5.93;;
67861;SDS011;54665;51.462;6.698;2023-09-18T04:48:09;11.60;;;5.60;;
67861;SDS011;54665;51.462;6.698;2023-09-18T04:50:11;12.00;;;5.70;;
67861;SDS011;54665;51.462;6.698;2023-09-18T04:52:11;14.90;;;5.60;;
67861;SDS011;54665;51.462;6.698;2023-09-18T04:54:11;10.07;;;5.03;;
67861;SDS011;54665;51.462;6.698;2023-09-18T04:56:12;11.03;;;4.90;;
67861;SDS011;54665;51.462;6.698;2023-09-18T04:58:12;8.70;;;4.57;;
67861;SDS011;54665;51.462;6.698;2023-09-18T05:00:13;8.93;;;5.03;;
67861;SDS011;54665;51.462;6.698;2023-09-18T05:02:13;10.70;;;4.65;;
67861;SDS011;54665;51.462;6.698;2023-09-18T05:04:14;9.20;;;4.50;;
67861;SDS011;54665;51.462;6.698;2023-09-18T05:06:15;11.47;;;4.70;;
67861;SDS011;54665;51.462;6.698;2023-09-18T05:08:15;10.57;;;4.60;;
67861;SDS011;54665;51.462;6.698;2023-09-18T05:10:15;9.57;;;4.60;;
67861;SDS011;54665;51.462;6.698;2023-09-18T05:12:16;12.10;;;4.57;;
67861;SDS011;54665;51.462;6.698;2023-09-18T05:14:16;11.60;;;4.43;;
67861;SDS011;54665;51.462;6.698;2023-09-18T05:16:16;8.80;;;4.05;;
67861;SDS011;54665;51.462;6.698;2023-09-18T05:18:17;7.93;;;3.90;;
67861;SDS011;54665;51.462;6.698;2023-09-18T05:20:17;9.37;;;4.03;;
67861;SDS011;54665;51.462;6.698;2023-09-18T05:22:18;8.27;;;3.90;;
67861;SDS011;54665;51.462;6.698;2023-09-18T05:24:18;9.77;;;4.10;;
67861;SDS011;54665;51.462;6.698;2023-09-18T05:26:19;10.20;;;4.13;;
67861;SDS011;54665;51.462;6.698;2023-09-18T05:28:19;9.93;;;4.03;;
67861;SDS011;54665;51.462;6.698;2023-09-18T05:30:21;10.57;;;3.70;;
67861;SDS011;54665;51.462;6.698;2023-09-18T05:32:25;8.75;;;3.78;;
67861;SDS011;54665;51.462;6.698;2023-09-18T05:34:26;10.77;;;4.10;;
67861;SDS011;54665;51.462;6.698;2023-09-18T05:36:26;8.47;;;3.50;;
67861;SDS011;54665;51.462;6.698;2023-09-18T05:38:26;8.77;;;3.57;;
67861;SDS011;54665;51.462;6.698;2023-09-18T05:40:27;9.45;;;3.70;;
67861;SDS011;54665;51.462;6.698;2023-09-18T05:42:27;8.00;;;3.67;;
67861;SDS011;54665;51.462;6.698;2023-09-18T05:44:27;10.37;;;3.60;;
67861;SDS011;54665;51.462;6.698;2023-09-18T05:46:28;7.03;;;3.70;;
67861;SDS011;54665;51.462;6.698;2023-09-18T05:48:28;10.13;;;3.27;;
67861;SDS011;54665;51.462;6.698;2023-09-18T05:50:28;7.97;;;3.60;;
67861;SDS011;54665;51.462;6.698;2023-09-18T05:52:30;9.45;;;3.65;;
67861;SDS011;54665;51.462;6.698;2023-09-18T05:54:30;6.93;;;3.47;;
67861;SDS011;54665;51.462;6.698;2023-09-18T05:56:30;10.53;;;3.53;;
67861;SDS011;54665;51.462;6.698;2023-09-18T05:58:31;7.20;;;3.73;;
67861;SDS011;54665;51.462;6.698;2023-09-18T06:00:32;8.00;;;3.70;;
67861;SDS011;54665;51.462;6.698;2023-09-18T06:02:33;7.88;;;3.55;;
67861;SDS011;54665;51.462;6.698;2023-09-18T06:04:33;10.97;;;4.00;;
67861;SDS011;54665;51.462;6.698;2023-09-18T06:06:33;9.47;;;3.80;;
67861;SDS011;54665;51.462;6.698;2023-09-18T06:08:34;7.28;;;3.70;;
67861;SDS011;54665;51.462;6.698;2023-09-18T06:10:34;7.03;;;3.50;;
67861;SDS011;54665;51.462;6.698;2023-09-18T06:12:34;9.47;;;3.87;;
67861;SDS011;54665;51.462;6.698;2023-09-18T06:14:34;9.83;;;4.00;;
67861;SDS011;54665;51.462;6.698;2023-09-18T06:16:35;8.03;;;3.63;;
67861;SDS011;54665;51.462;6.698;2023-09-18T06:18:35;9.33;;;3.80;;
67861;SDS011;54665;51.462;6.698;2023-09-18T06:20:35;9.67;;;3.97;;
67861;SDS011;54665;51.462;6.698;2023-09-18T06:22:39;8.05;;;3.85;;
67861;SDS011;54665;51.462;6.698;2023-09-18T06:24:42;9.67;;;3.40;;
67861;SDS011;54665;51.462;6.698;2023-09-18T06:26:42;9.98;;;3.70;;
67861;SDS011;54665;51.462;6.698;2023-09-18T06:28:42;11.27;;;4.00;;
67861;SDS011;54665;51.462;6.698;2023-09-18T06:30:43;7.83;;;3.63;;
67861;SDS011;54665;51.462;6.698;2023-09-18T06:32:43;6.93;;;3.50;;
67861;SDS011;54665;51.462;6.698;2023-09-18T06:34:43;8.63;;;3.73;;
67861;SDS011;54665;51.462;6.698;2023-09-18T06:36:44;8.23;;;3.37;;
67861;SDS011;54665;51.462;6.698;2023-09-18T06:38:44;11.03;;;3.70;;
67861;SDS011;54665;51.462;6.698;2023-09-18T06:40:44;7.73;;;3.40;;
67861;SDS011;54665;51.462;6.698;2023-09-18T06:42:45;11.83;;;3.27;;
67861;SDS011;54665;51.462;6.698;2023-09-18T06:44:46;6.50;;;3.25;;
67861;SDS011;54665;51.462;6.698;2023-09-18T06:46:46;8.97;;;3.43;;
67861;SDS011;54665;51.462;6.698;2023-09-18T06:48:46;8.18;;;3.38;;
67861;SDS011;54665;51.462;6.698;2023-09-18T06:50:47;7.83;;;3.20;;
67861;SDS011;54665;51.462;6.698;2023-09-18T06:52:47;8.30;;;2.90;;
67861;SDS011;54665;51.462;6.698;2023-09-18T06:54:47;7.63;;;3.17;;
67861;SDS011;54665;51.462;6.698;2023-09-18T06:56:48;6.50;;;2.63;;
67861;SDS011;54665;51.462;6.698;2023-09-18T06:58:48;7.80;;;2.90;;
67861;SDS011;54665;51.462;6.698;2023-09-18T07:00:48;8.70;;;2.87;;
67861;SDS011;54665;51.462;6.698;2023-09-18T07:02:48;7.77;;;2.60;;
67861;SDS011;54665;51.462;6.698;2023-09-18T07:04:49;6.57;;;2.50;;
67861;SDS011;54665;51.462;6.698;2023-09-18T07:06:49;7.50;;;2.87;;
67861;SDS011;54665;51.462;6.698;2023-09-18T07:08:49;6.50;;;2.60;;
67861;SDS011;54665;51.462;6.698;2023-09-18T07:10:50;7.93;;;2.57;;
67861;SDS011;54665;51.462;6.698;2023-09-18T07:12:50;6.23;;;2.70;;
67861;SDS011;54665;51.462;6.698;2023-09-18T07:14:50;4.28;;;2.28;;
67861;SDS011;54665;51.462;6.698;2023-09-18T07:16:51;7.77;;;2.33;;
67861;SDS011;54665;51.462;6.698;2023-09-18T07:18:51;6.83;;;2.57;;
67861;SDS011;54665;51.462;6.698;2023-09-18T07:20:51;4.80;;;2.10;;
67861;SDS011;54665;51.462;6.698;2023-09-18T07:22:52;5.33;;;2.30;;
67861;SDS011;54665;51.462;6.698;2023-09-18T07:24:52;5.77;;;2.20;;
67861;SDS011;54665;51.462;6.698;2023-09-18T07:26:52;5.00;;;2.20;;
67861;SDS011;54665;51.462;6.698;2023-09-18T07:28:53;5.40;;;2.07;;
67861;SDS011;54665;51.462;6.698;2023-09-18T07:30:53;7.97;;;2.08;;
67861;SDS011;54665;51.462;6.698;2023-09-18T07:32:56;7.70;;;2.10;;
67861;SDS011;54665;51.462;6.698;2023-09-18T07:34:57;4.82;;;2.28;;
67861;SDS011;54665;51.462;6.698;2023-09-18T07:36:57;4.67;;;1.90;;
67861;SDS011;54665;51.462;6.698;2023-09-18T07:38:57;6.50;;;2.10;;
67861;SDS011;54665;51.462;6.698;2023-09-18T07:40:58;4.80;;;1.77;;
67861;SDS011;54665;51.462;6.698;2023-09-18T07:42:58;5.30;;;1.87;;
67861;SDS011;54665;51.462;6.698;2023-09-18T07:44:59;7.07;;;2.03;;
67861;SDS011;54665;51.462;6.698;2023-09-18T07:46:59;6.13;;;1.92;;
67861;SDS011;54665;51.462;6.698;2023-09-18T07:48:59;6.67;;;1.90;;
67861;SDS011;54665;51.462;6.698;2023-09-18T07:51:00;5.33;;;1.80;;
67861;SDS011;54665;51.462;6.698;2023-09-18T07:53:00;7.03;;;1.60;;
67861;SDS011;54665;51.462;6.698;2023-09-18T07:55:01;4.00;;;1.63;;
67861;SDS011;54665;51.462;6.698;2023-09-18T07:57:01;5.83;;;1.53;;
67861;SDS011;54665;51.462;6.698;2023-09-18T07:59:02;3.85;;;1.50;;
67861;SDS011;54665;51.462;6.698;2023-09-18T08:01:02;3.83;;;1.30;;
67861;SDS011;54665;51.462;6.698;2023-09-18T08:03:03;3.00;;;1.37;;
67861;SDS011;54665;51.462;6.698;2023-09-18T08:05:03;4.03;;;1.40;;
67861;SDS011;54665;51.462;6.698;2023-09-18T08:07:04;5.63;;;1.50;;
67861;SDS011;54665;51.462;6.698;2023-09-18T08:09:04;4.63;;;1.33;;
67861;SDS011;54665;51.462;6.698;2023-09-18T08:11:07;4.80;;;1.40;;
67861;SDS011;54665;51.462;6.698;2023-09-18T08:13:08;4.20;;;1.20;;
67861;SDS011;54665;51.462;6.698;2023-09-18T08:15:08;5.73;;;1.30;;
67861;SDS011;54665;51.462;6.698;2023-09-18T08:17:09;4.32;;;1.40;;
67861;SDS011;54665;51.462;6.698;2023-09-18T08:19:09;3.83;;;1.37;;
67861;SDS011;54665;51.462;6.698;2023-09-18T08:21:10;2.87;;;1.30;;
67861;SDS011;54665;51.462;6.698;2023-09-18T08:23:10;4.27;;;1.50;;
67861;SDS011;54665;51.462;6.698;2023-09-18T08:25:11;3.63;;;1.35;;
67861;SDS011;54665;51.462;6.698;2023-09-18T08:27:13;5.30;;;1.57;;
67861;SDS011;54665;51.462;6.698;2023-09-18T08:29:16;5.10;;;1.33;;
67861;SDS011;54665;51.462;6.698;2023-09-18T08:31:17;6.03;;;1.25;;
67861;SDS011;54665;51.462;6.698;2023-09-18T08:33:17;6.03;;;1.30;;
67861;SDS011;54665;51.462;6.698;2023-09-18T08:35:17;3.30;;;1.30;;
67861;SDS011;54665;51.462;6.698;2023-09-18T08:37:18;7.07;;;1.30;;
67861;SDS011;54665;51.462;6.698;2023-09-18T08:39:18;3.97;;;1.20;;
67861;SDS011;54665;51.462;6.698;2023-09-18T08:41:18;4.68;;;1.48;;
67861;SDS011;54665;51.462;6.698;2023-09-18T08:43:19;3.47;;;1.20;;
67861;SDS011;54665;51.462;6.698;2023-09-18T08:47:31;2.88;;;1.20;;
67861;SDS011;54665;51.462;6.698;2023-09-18T08:49:31;4.77;;;1.30;;
67861;SDS011;54665;51.462;6.698;2023-09-18T08:51:33;3.95;;;1.33;;
67861;SDS011;54665;51.462;6.698;2023-09-18T08:53:35;3.65;;;1.00;;
67861;SDS011;54665;51.462;6.698;2023-09-18T08:55:36;2.90;;;1.30;;
67861;SDS011;54665;51.462;6.698;2023-09-18T08:57:36;5.77;;;1.27;;
67861;SDS011;54665;51.462;6.698;2023-09-18T08:59:39;3.33;;;1.20;;
67861;SDS011;54665;51.462;6.698;2023-09-18T09:01:40;3.80;;;1.20;;
67861;SDS011;54665;51.462;6.698;2023-09-18T09:03:40;2.67;;;1.33;;
67861;SDS011;54665;51.462;6.698;2023-09-18T09:05:42;4.80;;;1.17;;
67861;SDS011;54665;51.462;6.698;2023-09-18T09:07:42;3.03;;;1.30;;
67861;SDS011;54665;51.462;6.698;2023-09-18T09:09:43;2.50;;;1.00;;
67861;SDS011;54665;51.462;6.698;2023-09-18T09:11:48;2.67;;;1.20;;
67861;SDS011;54665;51.462;6.698;2023-09-18T09:14:10;2.83;;;1.10;;
67861;SDS011;54665;51.462;6.698;2023-09-18T09:16:11;2.38;;;1.00;;
67861;SDS011;54665;51.462;6.698;2023-09-18T09:18:13;2.73;;;1.30;;
67861;SDS011;54665;51.462;6.698;2023-09-18T09:20:14;3.47;;;1.33;;
67861;SDS011;54665;51.462;6.698;2023-09-18T09:22:19;3.80;;;1.40;;
67861;SDS011;54665;51.462;6.698;2023-09-18T09:24:35;2.85;;;1.20;;
67861;SDS011;54665;51.462;6.698;2023-09-18T09:26:43;2.50;;;1.00;;
67861;SDS011;54665;51.462;6.698;2023-09-18T09:28:43;2.27;;;1.03;;
67861;SDS011;54665;51.462;6.698;2023-09-18T09:30:44;3.13;;;1.10;;
67861;SDS011;54665;51.462;6.698;2023-09-18T09:32:47;1.83;;;0.98;;
67861;SDS011;54665;51.462;6.698;2023-09-18T09:34:48;2.23;;;1.03;;
67861;SDS011;54665;51.462;6.698;2023-09-18T09:36:52;3.72;;;1.20;;
67861;SDS011;54665;51.462;6.698;2023-09-18T09:38:57;3.53;;;1.23;;
67861;SDS011;54665;51.462;6.698;2023-09-18T09:40:57;2.13;;;1.10;;
67861;SDS011;54665;51.462;6.698;2023-09-18T09:42:58;2.90;;;1.30;;
67861;SDS011;54665;51.462;6.698;2023-09-18T09:45:00;4.00;;;1.40;;
67861;SDS011;54665;51.462;6.698;2023-09-18T09:47:05;2.97;;;1.23;;
67861;SDS011;54665;51.462;6.698;2023-09-18T09:49:06;2.60;;;1.15;;
67861;SDS011;54665;51.462;6.698;2023-09-18T09:51:06;3.07;;;1.40;;
67861;SDS011;54665;51.462;6.698;2023-09-18T09:53:07;4.27;;;1.50;;
67861;SDS011;54665;51.462;6.698;2023-09-18T09:55:17;4.20;;;1.13;;
67861;SDS011;54665;51.462;6.698;2023-09-18T09:57:31;3.28;;;1.20;;
67861;SDS011;54665;51.462;6.698;2023-09-18T09:59:46;2.17;;;1.30;;
67861;SDS011;54665;51.462;6.698;2023-09-18T10:01:47;2.83;;;1.20;;
67861;SDS011;54665;51.462;6.698;2023-09-18T10:03:48;3.75;;;1.27;;
67861;SDS011;54665;51.462;6.698;2023-09-18T10:05:50;3.43;;;1.30;;
67861;SDS011;54665;51.462;6.698;2023-09-18T10:07:51;2.67;;;1.20;;
67861;SDS011;54665;51.462;6.698;2023-09-18T10:09:54;3.40;;;1.20;;
67861;SDS011;54665;51.462;6.698;2023-09-18T10:11:54;2.63;;;1.30;;
67861;SDS011;54665;51.462;6.698;2023-09-18T10:14:00;3.60;;;1.30;;
67861;SDS011;54665;51.462;6.698;2023-09-18T10:16:07;6.57;;;1.50;;
67861;SDS011;54665;51.462;6.698;2023-09-18T10:18:16;3.15;;;1.20;;
67861;SDS011;54665;51.462;6.698;2023-09-18T10:20:22;1.98;;;1.20;;
67861;SDS011;54665;51.462;6.698;2023-09-18T10:22:27;4.68;;;1.42;;
67861;SDS011;54665;51.462;6.698;2023-09-18T10:24:37;4.70;;;1.47;;
67861;SDS011;54665;51.462;6.698;2023-09-18T10:26:41;6.72;;;1.50;;
67861;SDS011;54665;51.462;6.698;2023-09-18T10:28:51;2.78;;;1.30;;
67861;SDS011;54665;51.462;6.698;2023-09-18T10:30:54;3.15;;;1.40;;
67861;SDS011;54665;51.462;6.698;2023-09-18T10:32:57;4.78;;;1.40;;
67861;SDS011;54665;51.462;6.698;2023-09-18T10:34:57;2.83;;;1.40;;
67861;SDS011;54665;51.462;6.698;2023-09-18T10:36:57;3.30;;;1.50;;
67861;SDS011;54665;51.462;6.698;2023-09-18T10:39:00;5.60;;;1.50;;
67861;SDS011;54665;51.462;6.698;2023-09-18T10:41:01;3.40;;;1.35;;
67861;SDS011;54665;51.462;6.698;2023-09-18T10:43:02;4.13;;;1.50;;
67861;SDS011;54665;51.462;6.698;2023-09-18T10:45:05;3.47;;;1.40;;
67861;SDS011;54665;51.462;6.698;2023-09-18T10:47:08;5.53;;;1.40;;
67861;SDS011;54665;51.462;6.698;2023-09-18T10:49:11;2.97;;;1.60;;
67861;SDS011;54665;51.462;6.698;2023-09-18T10:51:11;2.35;;;1.58;;
67861;SDS011;54665;51.462;6.698;2023-09-18T10:53:12;3.03;;;1.50;;
67861;SDS011;54665;51.462;6.698;2023-09-18T10:55:13;4.70;;;1.60;;
67861;SDS011;54665;51.462;6.698;2023-09-18T10:57:14;2.77;;;1.53;;
67861;SDS011;54665;51.462;6.698;2023-09-18T10:59:15;4.43;;;1.60;;
67861;SDS011;54665;51.462;6.698;2023-09-18T11:01:16;4.13;;;1.70;;
67861;SDS011;54665;51.462;6.698;2023-09-18T11:03:18;4.22;;;1.80;;
67861;SDS011;54665;51.462;6.698;2023-09-18T11:05:32;3.40;;;1.73;;
67861;SDS011;54665;51.462;6.698;2023-09-18T11:07:32;2.90;;;1.60;;
67861;SDS011;54665;51.462;6.698;2023-09-18T11:09:43;5.03;;;1.57;;
67861;SDS011;54665;51.462;6.698;2023-09-18T11:11:44;3.75;;;1.73;;
67861;SDS011;54665;51.462;6.698;2023-09-18T11:13:45;3.53;;;1.80;;
67861;SDS011;54665;51.462;6.698;2023-09-18T11:15:47;2.67;;;1.45;;
67861;SDS011;54665;51.462;6.698;2023-09-18T11:17:55;4.65;;;1.70;;
67861;SDS011;54665;51.462;6.698;2023-09-18T11:20:09;3.53;;;1.60;;
67861;SDS011;54665;51.462;6.698;2023-09-18T11:22:18;3.65;;;1.70;;
67861;SDS011;54665;51.462;6.698;2023-09-18T11:24:21;3.00;;;1.80;;
67861;SDS011;54665;51.462;6.698;2023-09-18T11:26:22;2.65;;;1.70;;
67861;SDS011;54665;51.462;6.698;2023-09-18T11:28:23;3.43;;;1.70;;
67861;SDS011;54665;51.462;6.698;2023-09-18T11:30:28;3.53;;;1.80;;
67861;SDS011;54665;51.462;6.698;2023-09-18T11:32:38;4.50;;;1.73;;
67861;SDS011;54665;51.462;6.698;2023-09-18T11:34:39;2.97;;;1.65;;
67861;SDS011;54665;51.462;6.698;2023-09-18T11:36:39;4.20;;;1.80;;
67861;SDS011;54665;51.462;6.698;2023-09-18T11:38:59;2.40;;;1.60;;
67861;SDS011;54665;51.462;6.698;2023-09-18T11:41:01;4.20;;;1.60;;
67861;SDS011;54665;51.462;6.698;2023-09-18T11:45:26;6.88;;;1.70;;
67861;SDS011;54665;51.462;6.698;2023-09-18T11:47:27;4.03;;;2.00;;
67861;SDS011;54665;51.462;6.698;2023-09-18T11:49:27;3.97;;;1.90;;
67861;SDS011;54665;51.462;6.698;2023-09-18T11:51:28;3.65;;;1.90;;
67861;SDS011;54665;51.462;6.698;2023-09-18T11:53:28;3.00;;;1.90;;
67861;SDS011;54665;51.462;6.698;2023-09-18T11:55:29;3.23;;;1.80;;
67861;SDS011;54665;51.462;6.698;2023-09-18T11:57:29;2.60;;;1.73;;
67861;SDS011;54665;51.462;6.698;2023-09-18T11:59:39;4.03;;;2.10;;
67861;SDS011;54665;51.462;6.698;2023-09-18T12:01:40;4.57;;;1.80;;
67861;SDS011;54665;51.462;6.698;2023-09-18T12:03:41;2.43;;;1.73;;
67861;SDS011;54665;51.462;6.698;2023-09-18T12:05:42;3.97;;;1.52;;
67861;SDS011;54665;51.462;6.698;2023-09-18T12:07:43;5.03;;;2.00;;
67861;SDS011;54665;51.462;6.698;2023-09-18T12:09:44;4.25;;;1.80;;
67861;SDS011;54665;51.462;6.698;2023-09-18T12:11:45;4.00;;;1.80;;